createdAt,value
2022-11-05T00:02:38.707Z,101318.06
2022-11-05T00:05:35.651Z,101323.16
2022-11-05T00:08:26.441Z,101316.72
2022-11-05T00:10:58.440Z,101321.06
2022-11-05T00:13:48.860Z,101312.94
2022-11-05T00:16:39.278Z,101328.72
2022-11-05T00:19:11.385Z,101334.66
2022-11-05T00:22:01.768Z,101331.91
2022-11-05T00:24:52.133Z,101328.19
2022-11-05T00:27:24.030Z,101338.66
2022-11-05T00:29:55.877Z,101331.38
2022-11-05T00:32:27.768Z,101340.25
2022-11-05T00:34:59.872Z,101340.94
2022-11-05T00:37:31.834Z,101343.31
2022-11-05T00:40:04.890Z,101349.31
2022-11-05T00:42:55.427Z,101357.94
2022-11-05T00:45:28.692Z,101363.06
2022-11-05T00:48:18.963Z,101354.97
2022-11-05T00:50:50.895Z,101369.63
2022-11-05T00:53:22.823Z,101370.25
2022-11-05T00:55:54.757Z,101374.69
2022-11-05T00:58:29.109Z,101374.47
2022-11-05T01:01:02.347Z,101357.28
2022-11-05T01:03:37.613Z,101375.03
2022-11-05T01:06:17.219Z,101374.75
2022-11-05T01:08:49.120Z,101386.91
2022-11-05T01:11:33.530Z,101395.63
2022-11-05T01:14:12.621Z,101384.78
2022-11-05T01:16:45.551Z,101393.53
2022-11-05T01:19:17.503Z,101367.22
2022-11-05T01:21:49.385Z,101387.81
2022-11-05T01:24:21.315Z,101401.81
2022-11-05T01:26:53.299Z,101405.09
2022-11-05T01:29:25.322Z,101408.41
2022-11-05T01:31:57.262Z,101390.16
2022-11-05T01:34:29.223Z,101415.47
2022-11-05T01:37:01.119Z,101403.66
2022-11-05T01:39:33.033Z,101410.91
2022-11-05T01:42:15.421Z,101404.38
2022-11-05T01:45:10.074Z,101413.97
2022-11-05T01:48:12.921Z,101410.41
2022-11-05T01:51:00.743Z,101406.44
2022-11-05T01:54:03.072Z,101399.78
2022-11-05T01:56:58.151Z,101415.94
2022-11-05T01:59:41.379Z,101403.59
2022-11-05T02:02:13.385Z,101412.66
2022-11-05T02:04:54.078Z,101410.88
2022-11-05T02:07:28.867Z,101404.91
2022-11-05T02:10:08.117Z,101396.91
2022-11-05T02:12:44.926Z,101401.06
2022-11-05T02:15:30.220Z,101396.63
2022-11-05T02:18:51.796Z,101395.47
2022-11-05T02:22:01.584Z,101401.50
2022-11-05T02:24:46.967Z,101408.31
2022-11-05T02:27:52.314Z,101400.41
2022-11-05T02:30:44.936Z,101385.94
2022-11-05T02:33:48.102Z,101393.19
2022-11-05T02:36:42.062Z,101394.81
2022-11-05T02:39:44.453Z,101389.38
2022-11-05T02:42:44.158Z,101394.47
2022-11-05T02:45:55.344Z,101395.16
2022-11-05T02:48:55.663Z,101397.63
2022-11-05T02:51:51.642Z,101393.19
2022-11-05T02:54:56.999Z,101392.75
2022-11-05T02:57:30.762Z,101390.19
2022-11-05T03:00:43.879Z,101398.38
2022-11-05T03:03:43.026Z,101401.00
2022-11-05T03:06:39.634Z,101391.22
2022-11-05T03:09:39.304Z,101386.91
2022-11-05T03:12:48.688Z,101371.25
2022-11-05T03:15:40.754Z,101389.97
2022-11-05T03:18:21.643Z,101393.50
2022-11-05T03:21:11.602Z,101389.72
2022-11-05T03:24:12.350Z,101397.44
2022-11-05T03:26:54.328Z,101389.28
2022-11-05T03:29:34.087Z,101387.31
2022-11-05T03:32:09.837Z,101399.16
2022-11-05T03:34:53.176Z,101403.34
2022-11-05T03:37:31.839Z,101412.94
2022-11-05T03:40:09.378Z,101416.03
2022-11-05T03:42:47.549Z,101415.00
2022-11-05T03:45:28.489Z,101415.00
2022-11-05T03:48:03.807Z,101416.66
2022-11-05T03:50:44.756Z,101408.63
2022-11-05T03:53:30.736Z,101412.06
2022-11-05T03:56:20.694Z,101404.38
2022-11-05T03:58:58.861Z,101407.88
2022-11-05T04:01:32.464Z,101416.34
2022-11-05T04:04:06.951Z,101416.19
2022-11-05T04:06:57.824Z,101417.06
2022-11-05T04:09:48.438Z,101416.84
2022-11-05T04:12:39.091Z,101421.78
2022-11-05T04:15:10.992Z,101412.06
2022-11-05T04:17:42.919Z,101417.47
2022-11-05T04:20:33.645Z,101419.91
2022-11-05T04:23:26.033Z,101415.34
2022-11-05T04:25:57.904Z,101424.16
2022-11-05T04:28:49.723Z,101419.91
2022-11-05T04:31:21.610Z,101432.84
2022-11-05T04:33:53.508Z,101434.31
2022-11-05T04:36:25.476Z,101431.28
2022-11-05T04:38:57.363Z,101430.22
2022-11-05T04:41:29.342Z,101429.09
2022-11-05T04:44:01.272Z,101429.75
2022-11-05T04:46:33.196Z,101431.56
2022-11-05T04:49:05.262Z,101432.31
2022-11-05T04:51:37.197Z,101440.88
2022-11-05T04:54:09.286Z,101437.13
2022-11-05T04:56:41.244Z,101443.16
2022-11-05T04:59:13.139Z,101447.50
2022-11-05T05:01:45.063Z,101453.63
2022-11-05T05:04:17.041Z,101453.63
2022-11-05T05:06:48.946Z,101449.28
2022-11-05T05:09:20.911Z,101428.59
2022-11-05T05:11:52.791Z,101458.84
2022-11-05T05:14:24.885Z,101420.41
2022-11-05T05:16:56.896Z,101450.94
2022-11-05T05:19:29.022Z,101439.41
2022-11-05T05:22:00.908Z,101456.34
2022-11-05T05:24:32.771Z,101461.75
2022-11-05T05:27:04.683Z,101461.00
2022-11-05T05:29:36.601Z,101460.19
2022-11-05T05:32:08.589Z,101451.16
2022-11-05T05:34:40.575Z,101454.53
2022-11-05T05:37:12.515Z,101470.50
2022-11-05T05:39:45.978Z,101464.91
2022-11-05T05:42:18.063Z,101473.81
2022-11-05T05:44:50.077Z,101482.34
2022-11-05T05:47:22.033Z,101481.44
2022-11-05T05:49:53.945Z,101474.41
2022-11-05T05:52:25.814Z,101472.75
2022-11-05T05:54:57.755Z,101469.97
2022-11-05T05:57:29.697Z,101476.75
2022-11-05T06:00:02.021Z,101480.00
2022-11-05T06:02:34.033Z,101477.31
2022-11-05T06:05:06.355Z,101475.44
2022-11-05T06:07:38.254Z,101482.41
2022-11-05T06:10:10.273Z,101478.78
2022-11-05T06:12:42.177Z,101472.41
2022-11-05T06:15:14.180Z,101462.75
2022-11-05T06:17:46.580Z,101476.91
2022-11-05T06:20:18.512Z,101485.56
2022-11-05T06:22:57.871Z,101476.63
2022-11-05T06:25:29.883Z,101490.25
2022-11-05T06:28:01.883Z,101488.38
2022-11-05T06:30:33.752Z,101488.09
2022-11-05T06:33:05.903Z,101479.19
2022-11-05T06:35:37.851Z,101491.06
2022-11-05T06:38:09.725Z,101493.41
2022-11-05T06:40:41.740Z,101492.53
2022-11-05T06:43:14.155Z,101494.88
2022-11-05T06:45:46.376Z,101500.00
2022-11-05T06:48:18.325Z,101492.31
2022-11-05T06:50:50.223Z,101498.63
2022-11-05T06:53:22.463Z,101504.06
2022-11-05T06:55:54.433Z,101504.94
2022-11-05T06:58:27.361Z,101501.50
2022-11-05T07:01:09.129Z,101505.03
2022-11-05T07:03:41.053Z,101505.03
2022-11-05T07:06:13.062Z,101512.31
2022-11-05T07:08:45.048Z,101518.47
2022-11-05T07:11:16.966Z,101517.53
2022-11-05T07:13:48.841Z,101510.53
2022-11-05T07:16:20.726Z,101521.00
2022-11-05T07:18:52.949Z,101520.75
2022-11-05T07:21:25.244Z,101522.63
2022-11-05T07:23:57.106Z,101527.47
2022-11-05T07:26:34.251Z,101522.41
2022-11-05T07:29:06.858Z,101531.41
2022-11-05T07:31:38.741Z,101536.81
2022-11-05T07:34:10.642Z,101529.06
2022-11-05T07:36:42.574Z,101530.69
2022-11-05T07:39:14.514Z,101518.16
2022-11-05T07:41:46.398Z,101533.47
2022-11-05T07:44:18.387Z,101535.19
2022-11-05T07:46:51.181Z,101541.16
2022-11-05T07:49:23.952Z,101544.91
2022-11-05T07:51:55.858Z,101543.47
2022-11-05T07:54:27.798Z,101554.28
2022-11-05T07:57:01.413Z,101548.47
2022-11-05T07:59:33.297Z,101551.19
2022-11-05T08:02:05.510Z,101543.47
2022-11-05T08:04:38.478Z,101541.19
2022-11-05T08:07:10.399Z,101532.53
2022-11-05T08:09:42.472Z,101545.81
2022-11-05T08:12:14.368Z,101539.28
2022-11-05T08:14:46.218Z,101546.16
2022-11-05T08:17:18.674Z,101547.63
2022-11-05T08:19:50.662Z,101544.66
2022-11-05T08:22:22.629Z,101544.22
2022-11-05T08:24:54.563Z,101541.25
2022-11-05T08:27:26.539Z,101540.97
2022-11-05T08:29:58.461Z,101537.53
2022-11-05T08:32:30.320Z,101530.06
2022-11-05T08:35:02.500Z,101539.22
2022-11-05T08:37:34.417Z,101540.47
2022-11-05T08:40:07.336Z,101547.38
2022-11-05T08:42:39.309Z,101541.66
2022-11-05T08:45:11.231Z,101547.31
2022-11-05T08:47:43.188Z,101540.56
2022-11-05T08:50:15.179Z,101529.69
2022-11-05T08:52:47.054Z,101539.81
2022-11-05T08:55:19.087Z,101547.75
2022-11-05T08:58:18.328Z,101545.19
2022-11-05T09:00:50.434Z,101543.66
2022-11-05T09:03:22.483Z,101543.66
2022-11-05T09:05:54.392Z,101549.50
2022-11-05T09:08:26.387Z,101542.91
2022-11-05T09:10:58.559Z,101545.66
2022-11-05T09:13:30.510Z,101542.72
2022-11-05T09:16:02.690Z,101546.63
2022-11-05T09:18:34.632Z,101546.34
2022-11-05T09:21:06.573Z,101536.75
2022-11-05T09:23:39.376Z,101538.72
2022-11-05T09:26:14.100Z,101542.97
2022-11-05T09:28:45.999Z,101547.63
2022-11-05T09:31:17.873Z,101549.59
2022-11-05T09:33:49.956Z,101549.38
2022-11-05T09:36:21.844Z,101547.09
2022-11-05T09:38:53.746Z,101547.78
2022-11-05T09:41:39.958Z,101549.53
2022-11-05T09:44:47.903Z,101551.47
2022-11-05T09:47:28.683Z,101563.69
2022-11-05T09:50:09.151Z,101557.50
2022-11-05T09:52:41.191Z,101554.66
2022-11-05T09:55:31.977Z,101563.44
2022-11-05T09:58:22.130Z,101559.81
2022-11-05T10:00:58.498Z,101559.75
2022-11-05T10:03:31.564Z,101567.34
2022-11-05T10:06:09.724Z,101571.66
2022-11-05T10:08:50.392Z,101568.34
2022-11-05T10:11:34.212Z,101562.88
2022-11-05T10:14:20.907Z,101578.13
2022-11-05T10:17:12.393Z,101575.03
2022-11-05T10:20:11.098Z,101577.81
2022-11-05T10:22:48.294Z,101586.28
2022-11-05T10:25:27.518Z,101597.59
2022-11-05T10:28:00.299Z,101590.94
2022-11-05T10:30:32.856Z,101597.78
2022-11-05T10:33:07.366Z,101599.34
2022-11-05T10:35:50.160Z,101597.53
2022-11-05T10:38:22.126Z,101595.72
2022-11-05T10:41:06.180Z,101600.13
2022-11-05T10:43:59.474Z,101584.53
2022-11-05T10:46:56.379Z,101593.66
2022-11-05T10:49:36.996Z,101602.41
2022-11-05T10:52:39.593Z,101589.16
2022-11-05T10:55:24.948Z,101588.91
2022-11-05T10:58:11.716Z,101580.78
2022-11-05T11:01:06.336Z,101571.03
2022-11-05T11:03:45.282Z,101593.13
2022-11-05T11:06:29.321Z,101595.06
2022-11-05T11:09:08.602Z,101598.53
2022-11-05T11:11:42.905Z,101595.97
2022-11-05T11:14:14.779Z,101591.75
2022-11-05T11:16:53.393Z,101590.84
2022-11-05T11:19:34.822Z,101586.63
2022-11-05T11:22:06.646Z,101586.75
2022-11-05T11:24:45.286Z,101577.25
2022-11-05T11:27:33.327Z,101565.00
2022-11-05T11:30:06.936Z,101575.50
2022-11-05T11:32:40.149Z,101568.19
2022-11-05T11:35:24.907Z,101564.72
2022-11-05T11:38:00.887Z,101560.97
2022-11-05T11:40:38.440Z,101569.31
2022-11-05T11:43:29.033Z,101571.94
2022-11-05T11:46:06.050Z,101567.88
2022-11-05T11:48:41.209Z,101571.84
2022-11-05T11:51:30.964Z,101567.22
2022-11-05T11:54:05.113Z,101574.88
2022-11-05T11:56:46.980Z,101566.69
2022-11-05T11:59:53.869Z,101570.75
2022-11-05T12:02:40.660Z,101558.38
2022-11-05T12:05:34.161Z,101559.69
2022-11-05T12:08:26.158Z,101552.59
2022-11-05T12:11:18.300Z,101542.19
2022-11-05T12:14:10.278Z,101547.69
2022-11-05T12:17:10.870Z,101543.50
2022-11-05T12:20:09.004Z,101555.88
2022-11-05T12:23:20.780Z,101552.84
2022-11-05T12:26:30.298Z,101556.78
2022-11-05T12:29:49.147Z,101547.81
2022-11-05T12:32:49.466Z,101539.63
2022-11-05T12:35:57.987Z,101542.31
2022-11-05T12:39:14.685Z,101530.28
2022-11-05T12:42:27.492Z,101505.94
2022-11-05T12:45:33.016Z,101527.84
2022-11-05T12:48:36.940Z,101524.69
2022-11-05T12:51:38.825Z,101511.03
2022-11-05T12:54:47.852Z,101519.44
2022-11-05T12:57:22.939Z,101514.91
2022-11-05T13:00:19.232Z,101517.47
2022-11-05T13:02:53.814Z,101513.31
2022-11-05T13:05:49.563Z,101497.38
2022-11-05T13:08:39.283Z,101502.88
2022-11-05T13:11:28.174Z,101495.06
2022-11-05T13:14:17.644Z,101487.31
2022-11-05T13:17:30.929Z,101486.78
2022-11-05T13:20:17.475Z,101492.63
2022-11-05T13:23:00.749Z,101482.38
2022-11-05T13:25:41.978Z,101483.88
2022-11-05T13:28:39.607Z,101480.19
2022-11-05T13:31:18.591Z,101477.47
2022-11-05T13:33:53.065Z,101477.25
2022-11-05T13:37:17.575Z,101473.84
2022-11-05T13:39:54.744Z,101455.91
2022-11-05T13:42:45.224Z,101459.38
2022-11-05T13:45:45.116Z,101458.88
2022-11-05T13:49:01.495Z,101462.53
2022-11-05T13:51:54.743Z,101458.13
2022-11-05T13:55:10.848Z,101461.66
2022-11-05T13:57:48.824Z,101456.38
2022-11-05T14:00:27.767Z,101462.28
2022-11-05T14:03:18.104Z,101460.25
2022-11-05T14:06:00.425Z,101457.63
2022-11-05T14:08:45.933Z,101457.50
2022-11-05T14:11:40.585Z,101458.38
2022-11-05T14:14:23.792Z,101461.16
2022-11-05T14:17:27.920Z,101458.34
2022-11-05T14:20:02.878Z,101460.97
2022-11-05T14:22:40.942Z,101469.00
2022-11-05T14:25:19.009Z,101456.00
2022-11-05T14:27:54.562Z,101447.28
2022-11-05T14:30:46.774Z,101449.81
2022-11-05T14:33:37.723Z,101447.09
2022-11-05T14:36:21.652Z,101462.03
2022-11-05T14:39:04.301Z,101437.25
2022-11-05T14:41:56.467Z,101458.34
2022-11-05T14:44:31.182Z,101457.38
2022-11-05T14:47:21.182Z,101458.13
2022-11-05T14:50:07.754Z,101460.75
2022-11-05T14:52:50.370Z,101458.00
2022-11-05T14:55:40.532Z,101468.31
2022-11-05T14:58:45.832Z,101457.66
2022-11-05T15:01:35.804Z,101455.88
2022-11-05T15:04:32.491Z,101458.56
2022-11-05T15:07:04.406Z,101455.19
2022-11-05T15:09:55.852Z,101445.56
2022-11-05T15:12:48.901Z,101449.13
2022-11-05T15:15:32.175Z,101449.34
2022-11-05T15:18:38.758Z,101456.22
2022-11-05T15:21:18.188Z,101452.84
2022-11-05T15:23:58.978Z,101454.63
2022-11-05T15:26:53.839Z,101447.31
2022-11-05T15:29:30.478Z,101448.31
2022-11-05T15:32:02.818Z,101446.69
2022-11-05T15:34:35.899Z,101452.00
2022-11-05T15:37:10.820Z,101441.34
2022-11-05T15:39:47.717Z,101436.75
2022-11-05T15:42:26.042Z,101442.06
2022-11-05T15:45:00.231Z,101443.84
2022-11-05T15:47:35.338Z,101449.97
2022-11-05T15:50:15.948Z,101441.84
2022-11-05T15:52:54.791Z,101439.09
2022-11-05T15:55:27.035Z,101432.63
2022-11-05T15:58:09.947Z,101436.00
2022-11-05T16:00:48.452Z,101437.66
2022-11-05T16:03:30.846Z,101444.75
2022-11-05T16:06:03.224Z,101442.00
2022-11-05T16:08:36.554Z,101442.03
2022-11-05T16:11:08.502Z,101436.16
2022-11-05T16:13:42.002Z,101435.41
2022-11-05T16:16:13.848Z,101433.31
2022-11-05T16:18:46.041Z,101441.28
2022-11-05T16:21:22.738Z,101426.91
2022-11-05T16:24:00.666Z,101437.56
2022-11-05T16:29:38.233Z,101425.06
2022-11-05T16:32:28.606Z,101423.25
2022-11-05T16:35:07.193Z,101425.91
2022-11-05T16:37:41.742Z,101426.84
2022-11-05T16:40:20.838Z,101421.56
2022-11-05T16:42:54.647Z,101418.00
2022-11-05T16:45:29.512Z,101419.69
2022-11-05T16:48:01.448Z,101422.44
2022-11-05T16:50:34.069Z,101408.84
2022-11-05T16:53:06.694Z,101421.41
2022-11-05T16:55:42.144Z,101419.72
2022-11-05T16:58:26.108Z,101421.41
2022-11-05T17:01:08.480Z,101425.97
2022-11-05T17:03:40.443Z,101419.84
2022-11-05T17:06:14.682Z,101400.94
2022-11-05T17:08:48.215Z,101421.56
2022-11-05T17:11:21.444Z,101428.59
2022-11-05T17:13:53.359Z,101428.44
2022-11-05T17:16:26.714Z,101433.31
2022-11-05T17:18:58.684Z,101428.59
2022-11-05T17:21:30.602Z,101432.75
2022-11-05T17:24:02.736Z,101438.38
2022-11-05T17:26:34.948Z,101425.59
2022-11-05T17:29:07.340Z,101419.31
2022-11-05T17:31:40.975Z,101422.97
2022-11-05T17:34:13.016Z,101425.59
2022-11-05T17:36:44.909Z,101417.59
2022-11-05T17:39:16.954Z,101427.19
2022-11-05T17:41:48.969Z,101422.66
2022-11-05T17:44:20.937Z,101409.22
2022-11-05T17:46:52.883Z,101420.00
2022-11-05T17:49:24.786Z,101427.81
2022-11-05T17:51:56.729Z,101422.38
2022-11-05T17:54:28.680Z,101433.03
2022-11-05T17:57:02.335Z,101433.81
2022-11-05T17:59:34.271Z,101439.91
2022-11-05T18:02:07.063Z,101446.13
2022-11-05T18:04:39.991Z,101446.84
2022-11-05T18:07:11.958Z,101444.88
2022-11-05T18:09:43.845Z,101465.34
2022-11-05T18:12:15.730Z,101455.66
2022-11-05T18:14:47.627Z,101464.25
2022-11-05T18:17:19.505Z,101455.19
2022-11-05T18:19:51.416Z,101469.53
2022-11-05T18:22:23.486Z,101465.94
2022-11-05T18:24:55.959Z,101463.13
2022-11-05T18:27:27.912Z,101454.06
2022-11-05T18:29:59.841Z,101460.22
2022-11-05T18:32:32.049Z,101463.59
2022-11-05T18:35:04.400Z,101464.50
2022-11-05T18:37:38.898Z,101456.59
2022-11-05T18:40:11.822Z,101456.72
2022-11-05T18:42:43.794Z,101441.63
2022-11-05T18:45:15.805Z,101446.88
2022-11-05T18:47:47.726Z,101466.88
2022-11-05T18:50:19.974Z,101464.19
2022-11-05T18:52:51.911Z,101461.50
2022-11-05T18:55:25.133Z,101466.63
2022-11-05T18:57:57.330Z,101463.84
2022-11-05T19:00:29.270Z,101469.13
2022-11-05T19:03:01.539Z,101468.97
2022-11-05T19:05:34.649Z,101459.03
2022-11-05T19:08:07.067Z,101462.66
2022-11-05T19:10:40.733Z,101455.69
2022-11-05T19:13:12.650Z,101440.66
2022-11-05T19:15:44.626Z,101426.94
2022-11-05T19:18:16.620Z,101445.81
2022-11-05T19:20:48.541Z,101448.38
2022-11-05T19:23:20.387Z,101444.72
2022-11-05T19:25:52.354Z,101440.44
2022-11-05T19:28:24.223Z,101436.19
2022-11-05T19:30:56.117Z,101421.31
2022-11-05T19:33:28.634Z,101417.44
2022-11-05T19:36:05.878Z,101420.31
2022-11-05T19:38:38.266Z,101416.53
2022-11-05T19:41:14.183Z,101423.63
2022-11-05T19:43:46.873Z,101401.78
2022-11-05T19:46:20.800Z,101428.63
2022-11-05T19:48:53.474Z,101422.25
2022-11-05T19:51:30.204Z,101425.03
2022-11-05T19:54:03.951Z,101424.19
2022-11-05T19:56:38.378Z,101409.09
2022-11-05T19:59:12.074Z,101406.38
2022-11-05T20:01:44.090Z,101404.56
2022-11-05T20:04:16.112Z,101382.44
2022-11-05T20:06:48.502Z,101377.06
2022-11-05T20:09:22.268Z,101368.97
2022-11-05T20:11:56.718Z,101367.16
2022-11-05T20:14:29.748Z,101378.72
2022-11-05T20:17:01.705Z,101383.06
2022-11-05T20:19:33.758Z,101379.25
2022-11-05T20:22:06.003Z,101391.69
2022-11-05T20:24:37.979Z,101387.16
2022-11-05T20:27:10.004Z,101396.75
2022-11-05T20:29:43.059Z,101395.13
2022-11-05T20:32:15.153Z,101395.91
2022-11-05T20:34:47.102Z,101392.31
2022-11-05T20:37:19.195Z,101387.81
2022-11-05T20:39:51.060Z,101385.41
2022-11-05T20:42:23.109Z,101370.38
2022-11-05T20:44:54.994Z,101395.19
2022-11-05T20:47:26.931Z,101379.38
2022-11-05T20:50:00.031Z,101385.53
2022-11-05T20:52:31.984Z,101396.94
2022-11-05T20:55:05.238Z,101386.28
2022-11-05T20:57:38.529Z,101390.78
2022-11-05T21:00:11.837Z,101394.31
2022-11-05T21:02:43.894Z,101391.53
2022-11-05T21:05:15.923Z,101402.00
2022-11-05T21:07:47.805Z,101406.31
2022-11-05T21:10:19.772Z,101406.25
2022-11-05T21:12:51.731Z,101390.13
2022-11-05T21:15:24.340Z,101373.06
2022-11-05T21:17:56.251Z,101418.47
2022-11-05T21:20:28.413Z,101416.53
2022-11-05T21:23:00.293Z,101405.91
2022-11-05T21:25:32.262Z,101416.41
2022-11-05T21:28:04.583Z,101416.28
2022-11-05T21:30:38.838Z,101414.56
2022-11-05T21:33:11.801Z,101413.66
2022-11-05T21:35:48.336Z,101409.19
2022-11-05T21:38:20.731Z,101416.16
2022-11-05T21:40:52.678Z,101404.75
2022-11-05T21:43:24.616Z,101403.59
2022-11-05T21:46:01.235Z,101398.13
2022-11-05T21:48:34.005Z,101408.03
2022-11-05T21:51:25.594Z,101397.50
2022-11-05T21:54:16.333Z,101386.78
2022-11-05T21:57:10.855Z,101378.81
2022-11-05T21:59:48.780Z,101375.38
2022-11-05T22:02:23.719Z,101372.03
2022-11-05T22:04:59.834Z,101381.59
2022-11-05T22:07:36.239Z,101370.94
2022-11-05T22:10:16.058Z,101368.31
2022-11-05T22:12:48.345Z,101370.00
2022-11-05T22:15:20.212Z,101357.78
2022-11-05T22:17:52.267Z,101357.06
2022-11-05T22:20:24.195Z,101346.59
2022-11-05T22:22:56.147Z,101343.06
2022-11-05T22:25:28.049Z,101343.13
2022-11-05T22:27:59.910Z,101355.44
2022-11-05T22:30:35.532Z,101355.38
2022-11-05T22:33:07.446Z,101353.72
2022-11-05T22:35:39.958Z,101346.72
2022-11-05T22:38:12.790Z,101346.66
2022-11-05T22:40:45.008Z,101364.25
2022-11-05T22:43:16.910Z,101354.59
2022-11-05T22:45:48.930Z,101363.34
2022-11-05T22:48:20.838Z,101353.56
2022-11-05T22:50:52.750Z,101347.44
2022-11-05T22:53:24.636Z,101356.19
2022-11-05T22:55:56.560Z,101342.31
2022-11-05T22:58:28.450Z,101351.91
2022-11-05T23:01:01.498Z,101341.28
2022-11-05T23:03:34.317Z,101334.47
2022-11-05T23:06:48.796Z,101325.56
2022-11-05T23:09:45.491Z,101329.16
2022-11-05T23:12:29.967Z,101322.94
2022-11-05T23:15:05.889Z,101324.84
2022-11-05T23:17:56.232Z,101299.16
2022-11-05T23:20:46.821Z,101313.44
2022-11-05T23:23:37.290Z,101300.88
2022-11-05T23:26:28.195Z,101308.84
2022-11-05T23:29:00.120Z,101300.97
2022-11-05T23:31:50.673Z,101298.31
2022-11-05T23:34:22.558Z,101305.09
2022-11-05T23:37:13.010Z,101299.72
2022-11-05T23:39:45.371Z,101292.53
2022-11-05T23:42:36.683Z,101291.03
2022-11-05T23:45:28.453Z,101291.03
2022-11-05T23:48:17.176Z,101280.25
2022-11-05T23:50:59.071Z,101285.22
2022-11-05T23:53:34.368Z,101279.34
2022-11-05T23:56:11.858Z,101272.94
2022-11-05T23:58:44.012Z,101281.91
